sensor_id;sensor_type;location;lat;lon;timestamp;P1;durP1;ratioP1;P2;durP2;ratioP2
7191;SDS011;3637;51.494;11.958;2023-05-10T00:01:27;4.27;;;3.80;;
7191;SDS011;3637;51.494;11.958;2023-05-10T00:04:29;7.20;;;3.67;;
7191;SDS011;3637;51.494;11.958;2023-05-10T00:07:31;4.80;;;3.90;;
7191;SDS011;3637;51.494;11.958;2023-05-10T00:10:34;4.27;;;3.73;;
7191;SDS011;3637;51.494;11.958;2023-05-10T00:13:37;6.33;;;4.03;;
7191;SDS011;3637;51.494;11.958;2023-05-10T00:16:39;6.77;;;3.80;;
7191;SDS011;3637;51.494;11.958;2023-05-10T00:19:41;4.13;;;3.73;;
7191;SDS011;3637;51.494;11.958;2023-05-10T00:22:43;5.93;;;4.40;;
7191;SDS011;3637;51.494;11.958;2023-05-10T00:25:46;7.93;;;4.27;;
7191;SDS011;3637;51.494;11.958;2023-05-10T00:28:48;3.87;;;3.47;;
7191;SDS011;3637;51.494;11.958;2023-05-10T00:31:50;4.67;;;3.87;;
7191;SDS011;3637;51.494;11.958;2023-05-10T00:34:52;4.90;;;3.87;;
7191;SDS011;3637;51.494;11.958;2023-05-10T00:38:00;4.27;;;3.60;;
7191;SDS011;3637;51.494;11.958;2023-05-10T00:41:03;5.53;;;4.13;;
7191;SDS011;3637;51.494;11.958;2023-05-10T00:44:05;4.97;;;3.90;;
7191;SDS011;3637;51.494;11.958;2023-05-10T00:47:07;5.07;;;4.13;;
7191;SDS011;3637;51.494;11.958;2023-05-10T00:50:09;3.90;;;3.47;;
7191;SDS011;3637;51.494;11.958;2023-05-10T00:53:11;5.07;;;3.70;;
7191;SDS011;3637;51.494;11.958;2023-05-10T00:56:15;4.70;;;3.87;;
7191;SDS011;3637;51.494;11.958;2023-05-10T00:59:17;4.60;;;4.10;;
7191;SDS011;3637;51.494;11.958;2023-05-10T01:02:19;4.30;;;3.60;;
7191;SDS011;3637;51.494;11.958;2023-05-10T01:05:21;4.30;;;3.63;;
7191;SDS011;3637;51.494;11.958;2023-05-10T01:08:22;4.17;;;3.70;;
7191;SDS011;3637;51.494;11.958;2023-05-10T01:11:26;5.73;;;4.20;;
7191;SDS011;3637;51.494;11.958;2023-05-10T01:14:28;4.80;;;4.27;;
7191;SDS011;3637;51.494;11.958;2023-05-10T01:17:31;6.17;;;4.57;;
7191;SDS011;3637;51.494;11.958;2023-05-10T01:20:35;4.47;;;4.03;;
7191;SDS011;3637;51.494;11.958;2023-05-10T01:23:46;4.57;;;3.97;;
7191;SDS011;3637;51.494;11.958;2023-05-10T01:31:17;5.87;;;4.17;;
7191;SDS011;3637;51.494;11.958;2023-05-10T01:34:27;4.93;;;3.50;;
7191;SDS011;3637;51.494;11.958;2023-05-10T01:37:37;6.53;;;4.13;;
7191;SDS011;3637;51.494;11.958;2023-05-10T01:40:46;5.37;;;4.27;;
7191;SDS011;3637;51.494;11.958;2023-05-10T01:43:55;6.37;;;4.00;;
7191;SDS011;3637;51.494;11.958;2023-05-10T01:47:04;4.47;;;3.73;;
7191;SDS011;3637;51.494;11.958;2023-05-10T01:50:10;6.33;;;3.90;;
7191;SDS011;3637;51.494;11.958;2023-05-10T01:53:17;5.80;;;3.87;;
7191;SDS011;3637;51.494;11.958;2023-05-10T01:56:22;4.20;;;3.43;;
7191;SDS011;3637;51.494;11.958;2023-05-10T01:59:28;4.20;;;3.80;;
7191;SDS011;3637;51.494;11.958;2023-05-10T02:02:35;4.20;;;3.80;;
7191;SDS011;3637;51.494;11.958;2023-05-10T02:05:40;6.27;;;4.30;;
7191;SDS011;3637;51.494;11.958;2023-05-10T02:08:44;5.37;;;4.03;;
7191;SDS011;3637;51.494;11.958;2023-05-10T02:11:48;5.20;;;4.10;;
7191;SDS011;3637;51.494;11.958;2023-05-10T02:14:51;8.00;;;4.30;;
7191;SDS011;3637;51.494;11.958;2023-05-10T02:17:54;5.93;;;4.50;;
7191;SDS011;3637;51.494;11.958;2023-05-10T02:20:58;5.30;;;4.30;;
7191;SDS011;3637;51.494;11.958;2023-05-10T02:24:01;5.43;;;4.43;;
7191;SDS011;3637;51.494;11.958;2023-05-10T02:27:05;5.23;;;4.30;;
7191;SDS011;3637;51.494;11.958;2023-05-10T02:30:08;9.23;;;4.03;;
7191;SDS011;3637;51.494;11.958;2023-05-10T02:33:11;7.03;;;4.43;;
7191;SDS011;3637;51.494;11.958;2023-05-10T02:36:14;5.03;;;4.37;;
7191;SDS011;3637;51.494;11.958;2023-05-10T02:39:17;5.43;;;4.37;;
7191;SDS011;3637;51.494;11.958;2023-05-10T02:42:22;5.07;;;4.13;;
7191;SDS011;3637;51.494;11.958;2023-05-10T02:45:27;9.37;;;4.77;;
7191;SDS011;3637;51.494;11.958;2023-05-10T02:48:32;4.30;;;3.80;;
7191;SDS011;3637;51.494;11.958;2023-05-10T02:51:35;5.27;;;4.27;;
7191;SDS011;3637;51.494;11.958;2023-05-10T02:54:43;5.60;;;4.60;;
7191;SDS011;3637;51.494;11.958;2023-05-10T02:57:48;4.83;;;4.30;;
7191;SDS011;3637;51.494;11.958;2023-05-10T03:00:53;5.60;;;4.30;;
7191;SDS011;3637;51.494;11.958;2023-05-10T03:03:55;5.93;;;4.23;;
7191;SDS011;3637;51.494;11.958;2023-05-10T03:07:01;5.13;;;4.23;;
7191;SDS011;3637;51.494;11.958;2023-05-10T03:10:04;8.53;;;4.50;;
7191;SDS011;3637;51.494;11.958;2023-05-10T03:13:07;6.43;;;4.20;;
7191;SDS011;3637;51.494;11.958;2023-05-10T03:16:20;4.47;;;4.03;;
7191;SDS011;3637;51.494;11.958;2023-05-10T03:19:30;5.87;;;4.67;;
7191;SDS011;3637;51.494;11.958;2023-05-10T03:22:36;5.37;;;3.93;;
7191;SDS011;3637;51.494;11.958;2023-05-10T03:25:41;8.70;;;4.50;;
7191;SDS011;3637;51.494;11.958;2023-05-10T03:28:44;5.83;;;4.57;;
7191;SDS011;3637;51.494;11.958;2023-05-10T03:31:48;5.00;;;4.40;;
7191;SDS011;3637;51.494;11.958;2023-05-10T03:34:50;4.80;;;4.30;;
7191;SDS011;3637;51.494;11.958;2023-05-10T03:37:53;6.17;;;4.20;;
7191;SDS011;3637;51.494;11.958;2023-05-10T03:40:55;5.23;;;4.23;;
7191;SDS011;3637;51.494;11.958;2023-05-10T03:43:59;5.43;;;4.33;;
7191;SDS011;3637;51.494;11.958;2023-05-10T03:47:00;6.30;;;4.47;;
7191;SDS011;3637;51.494;11.958;2023-05-10T03:50:02;8.67;;;4.73;;
7191;SDS011;3637;51.494;11.958;2023-05-10T03:53:06;6.57;;;4.37;;
7191;SDS011;3637;51.494;11.958;2023-05-10T03:56:08;6.27;;;4.90;;
7191;SDS011;3637;51.494;11.958;2023-05-10T03:59:19;6.37;;;4.23;;
7191;SDS011;3637;51.494;11.958;2023-05-10T04:02:21;5.17;;;4.50;;
7191;SDS011;3637;51.494;11.958;2023-05-10T04:05:23;7.17;;;4.90;;
7191;SDS011;3637;51.494;11.958;2023-05-10T04:08:26;8.03;;;5.50;;
7191;SDS011;3637;51.494;11.958;2023-05-10T04:11:28;5.13;;;4.57;;
7191;SDS011;3637;51.494;11.958;2023-05-10T04:14:30;4.50;;;4.10;;
7191;SDS011;3637;51.494;11.958;2023-05-10T04:17:32;5.23;;;4.63;;
7191;SDS011;3637;51.494;11.958;2023-05-10T04:20:34;5.73;;;4.70;;
7191;SDS011;3637;51.494;11.958;2023-05-10T04:23:37;7.07;;;4.53;;
7191;SDS011;3637;51.494;11.958;2023-05-10T04:26:39;6.60;;;4.10;;
7191;SDS011;3637;51.494;11.958;2023-05-10T04:29:40;7.63;;;4.70;;
7191;SDS011;3637;51.494;11.958;2023-05-10T04:32:42;8.33;;;5.17;;
7191;SDS011;3637;51.494;11.958;2023-05-10T04:35:44;5.23;;;4.23;;
7191;SDS011;3637;51.494;11.958;2023-05-10T04:38:47;7.53;;;4.33;;
7191;SDS011;3637;51.494;11.958;2023-05-10T04:41:58;5.63;;;4.23;;
7191;SDS011;3637;51.494;11.958;2023-05-10T04:45:00;7.10;;;4.87;;
7191;SDS011;3637;51.494;11.958;2023-05-10T04:48:02;5.70;;;4.47;;
7191;SDS011;3637;51.494;11.958;2023-05-10T04:51:04;6.30;;;4.30;;
7191;SDS011;3637;51.494;11.958;2023-05-10T04:54:08;8.00;;;4.50;;
7191;SDS011;3637;51.494;11.958;2023-05-10T04:57:10;5.47;;;4.27;;
7191;SDS011;3637;51.494;11.958;2023-05-10T05:00:12;4.80;;;3.80;;
7191;SDS011;3637;51.494;11.958;2023-05-10T05:03:14;6.30;;;5.23;;
7191;SDS011;3637;51.494;11.958;2023-05-10T05:06:16;9.20;;;4.97;;
7191;SDS011;3637;51.494;11.958;2023-05-10T05:09:19;6.10;;;4.70;;
7191;SDS011;3637;51.494;11.958;2023-05-10T05:12:21;5.37;;;4.40;;
7191;SDS011;3637;51.494;11.958;2023-05-10T05:15:23;4.97;;;4.23;;
7191;SDS011;3637;51.494;11.958;2023-05-10T05:18:25;3.90;;;3.60;;
7191;SDS011;3637;51.494;11.958;2023-05-10T05:21:27;7.07;;;3.77;;
7191;SDS011;3637;51.494;11.958;2023-05-10T05:24:32;5.77;;;4.40;;
7191;SDS011;3637;51.494;11.958;2023-05-10T05:27:38;4.80;;;3.77;;
7191;SDS011;3637;51.494;11.958;2023-05-10T05:30:39;4.57;;;4.00;;
7191;SDS011;3637;51.494;11.958;2023-05-10T05:33:41;6.40;;;3.97;;
7191;SDS011;3637;51.494;11.958;2023-05-10T05:36:43;6.93;;;4.43;;
7191;SDS011;3637;51.494;11.958;2023-05-10T05:39:46;4.53;;;3.63;;
7191;SDS011;3637;51.494;11.958;2023-05-10T05:42:48;6.73;;;4.27;;
7191;SDS011;3637;51.494;11.958;2023-05-10T05:45:51;5.53;;;4.20;;
7191;SDS011;3637;51.494;11.958;2023-05-10T05:48:53;11.23;;;4.43;;
7191;SDS011;3637;51.494;11.958;2023-05-10T05:51:58;5.77;;;4.30;;
7191;SDS011;3637;51.494;11.958;2023-05-10T05:55:02;8.33;;;4.37;;
7191;SDS011;3637;51.494;11.958;2023-05-10T05:58:04;4.93;;;4.03;;
7191;SDS011;3637;51.494;11.958;2023-05-10T06:01:06;9.50;;;4.20;;
7191;SDS011;3637;51.494;11.958;2023-05-10T06:04:08;9.90;;;4.00;;
7191;SDS011;3637;51.494;11.958;2023-05-10T06:07:10;10.27;;;4.40;;
7191;SDS011;3637;51.494;11.958;2023-05-10T06:10:13;7.40;;;4.60;;
7191;SDS011;3637;51.494;11.958;2023-05-10T06:13:15;12.33;;;4.27;;
7191;SDS011;3637;51.494;11.958;2023-05-10T06:16:17;8.50;;;4.40;;
7191;SDS011;3637;51.494;11.958;2023-05-10T06:19:18;8.13;;;4.33;;
7191;SDS011;3637;51.494;11.958;2023-05-10T06:22:20;6.63;;;3.77;;
7191;SDS011;3637;51.494;11.958;2023-05-10T06:25:24;6.07;;;4.10;;
7191;SDS011;3637;51.494;11.958;2023-05-10T06:28:26;6.20;;;4.07;;
7191;SDS011;3637;51.494;11.958;2023-05-10T06:31:27;6.67;;;4.27;;
7191;SDS011;3637;51.494;11.958;2023-05-10T06:34:29;7.47;;;4.07;;
7191;SDS011;3637;51.494;11.958;2023-05-10T06:37:31;6.20;;;4.20;;
7191;SDS011;3637;51.494;11.958;2023-05-10T06:40:34;6.90;;;4.37;;
7191;SDS011;3637;51.494;11.958;2023-05-10T06:43:36;8.63;;;4.07;;
7191;SDS011;3637;51.494;11.958;2023-05-10T06:46:40;5.43;;;3.80;;
7191;SDS011;3637;51.494;11.958;2023-05-10T06:49:41;7.43;;;3.70;;
7191;SDS011;3637;51.494;11.958;2023-05-10T06:52:43;8.30;;;3.70;;
7191;SDS011;3637;51.494;11.958;2023-05-10T06:55:46;6.03;;;3.67;;
7191;SDS011;3637;51.494;11.958;2023-05-10T06:58:50;4.37;;;3.77;;
7191;SDS011;3637;51.494;11.958;2023-05-10T07:01:51;4.23;;;3.50;;
7191;SDS011;3637;51.494;11.958;2023-05-10T07:04:53;5.13;;;3.57;;
7191;SDS011;3637;51.494;11.958;2023-05-10T07:07:55;4.53;;;3.80;;
7191;SDS011;3637;51.494;11.958;2023-05-10T07:11:01;5.17;;;3.40;;
7191;SDS011;3637;51.494;11.958;2023-05-10T07:14:04;6.50;;;3.70;;
7191;SDS011;3637;51.494;11.958;2023-05-10T07:17:06;6.37;;;5.60;;
7191;SDS011;3637;51.494;11.958;2023-05-10T07:20:08;7.17;;;3.83;;
7191;SDS011;3637;51.494;11.958;2023-05-10T07:23:10;5.27;;;3.60;;
7191;SDS011;3637;51.494;11.958;2023-05-10T07:26:13;4.70;;;3.83;;
7191;SDS011;3637;51.494;11.958;2023-05-10T07:29:15;6.63;;;4.00;;
7191;SDS011;3637;51.494;11.958;2023-05-10T07:32:17;8.53;;;4.50;;
7191;SDS011;3637;51.494;11.958;2023-05-10T07:35:19;7.87;;;4.33;;
7191;SDS011;3637;51.494;11.958;2023-05-10T07:38:20;4.37;;;3.73;;
7191;SDS011;3637;51.494;11.958;2023-05-10T07:41:24;5.87;;;4.30;;
7191;SDS011;3637;51.494;11.958;2023-05-10T07:44:25;4.40;;;4.00;;
7191;SDS011;3637;51.494;11.958;2023-05-10T07:47:27;6.33;;;4.47;;
7191;SDS011;3637;51.494;11.958;2023-05-10T07:50:31;6.10;;;3.97;;
7191;SDS011;3637;51.494;11.958;2023-05-10T07:53:33;6.67;;;4.50;;
7191;SDS011;3637;51.494;11.958;2023-05-10T07:56:37;4.50;;;4.10;;
7191;SDS011;3637;51.494;11.958;2023-05-10T07:59:39;5.80;;;4.50;;
7191;SDS011;3637;51.494;11.958;2023-05-10T08:02:42;10.10;;;4.10;;
7191;SDS011;3637;51.494;11.958;2023-05-10T08:05:43;4.87;;;3.90;;
7191;SDS011;3637;51.494;11.958;2023-05-10T08:08:45;7.63;;;4.47;;
7191;SDS011;3637;51.494;11.958;2023-05-10T08:11:50;5.03;;;4.50;;
7191;SDS011;3637;51.494;11.958;2023-05-10T08:14:52;5.77;;;4.77;;
7191;SDS011;3637;51.494;11.958;2023-05-10T08:17:54;6.03;;;4.93;;
7191;SDS011;3637;51.494;11.958;2023-05-10T08:20:56;5.80;;;4.67;;
7191;SDS011;3637;51.494;11.958;2023-05-10T08:23:57;8.03;;;4.90;;
7191;SDS011;3637;51.494;11.958;2023-05-10T08:27:01;5.10;;;4.53;;
7191;SDS011;3637;51.494;11.958;2023-05-10T08:30:03;6.30;;;5.20;;
7191;SDS011;3637;51.494;11.958;2023-05-10T08:33:05;5.63;;;4.80;;
7191;SDS011;3637;51.494;11.958;2023-05-10T08:36:07;7.53;;;5.37;;
7191;SDS011;3637;51.494;11.958;2023-05-10T08:39:09;6.80;;;5.33;;
7191;SDS011;3637;51.494;11.958;2023-05-10T08:42:12;10.10;;;5.73;;
7191;SDS011;3637;51.494;11.958;2023-05-10T08:45:20;8.53;;;6.27;;
7191;SDS011;3637;51.494;11.958;2023-05-10T08:48:24;7.57;;;6.10;;
7191;SDS011;3637;51.494;11.958;2023-05-10T08:51:26;8.53;;;5.80;;
7191;SDS011;3637;51.494;11.958;2023-05-10T08:54:32;6.97;;;5.83;;
7191;SDS011;3637;51.494;11.958;2023-05-10T08:57:36;7.63;;;6.10;;
7191;SDS011;3637;51.494;11.958;2023-05-10T09:00:38;8.10;;;5.70;;
7191;SDS011;3637;51.494;11.958;2023-05-10T09:03:39;11.77;;;6.60;;
7191;SDS011;3637;51.494;11.958;2023-05-10T09:06:41;7.40;;;5.50;;
7191;SDS011;3637;51.494;11.958;2023-05-10T09:09:43;6.97;;;5.87;;
7191;SDS011;3637;51.494;11.958;2023-05-10T09:12:48;6.50;;;5.80;;
7191;SDS011;3637;51.494;11.958;2023-05-10T09:15:51;6.30;;;5.70;;
7191;SDS011;3637;51.494;11.958;2023-05-10T09:18:54;8.73;;;6.07;;
7191;SDS011;3637;51.494;11.958;2023-05-10T09:21:55;6.87;;;6.10;;
7191;SDS011;3637;51.494;11.958;2023-05-10T09:25:03;7.63;;;6.43;;
7191;SDS011;3637;51.494;11.958;2023-05-10T09:28:10;7.00;;;5.83;;
7191;SDS011;3637;51.494;11.958;2023-05-10T09:31:13;8.87;;;6.57;;
7191;SDS011;3637;51.494;11.958;2023-05-10T09:34:15;9.20;;;6.80;;
7191;SDS011;3637;51.494;11.958;2023-05-10T09:37:18;8.90;;;6.37;;
7191;SDS011;3637;51.494;11.958;2023-05-10T09:40:31;8.27;;;6.60;;
7191;SDS011;3637;51.494;11.958;2023-05-10T09:43:38;9.47;;;6.67;;
7191;SDS011;3637;51.494;11.958;2023-05-10T09:46:41;7.63;;;6.20;;
7191;SDS011;3637;51.494;11.958;2023-05-10T09:49:42;10.30;;;6.87;;
7191;SDS011;3637;51.494;11.958;2023-05-10T09:52:48;8.20;;;6.83;;
7191;SDS011;3637;51.494;11.958;2023-05-10T09:55:51;7.97;;;6.30;;
7191;SDS011;3637;51.494;11.958;2023-05-10T09:59:03;10.33;;;6.63;;
7191;SDS011;3637;51.494;11.958;2023-05-10T10:02:05;8.93;;;6.73;;
7191;SDS011;3637;51.494;11.958;2023-05-10T10:05:08;7.60;;;6.27;;
7191;SDS011;3637;51.494;11.958;2023-05-10T10:08:10;8.63;;;6.47;;
7191;SDS011;3637;51.494;11.958;2023-05-10T10:11:12;6.10;;;5.50;;
7191;SDS011;3637;51.494;11.958;2023-05-10T10:14:16;8.37;;;5.57;;
7191;SDS011;3637;51.494;11.958;2023-05-10T10:17:19;7.73;;;5.40;;
7191;SDS011;3637;51.494;11.958;2023-05-10T10:20:22;6.17;;;5.20;;
7191;SDS011;3637;51.494;11.958;2023-05-10T10:23:25;6.03;;;5.43;;
7191;SDS011;3637;51.494;11.958;2023-05-10T10:26:28;6.63;;;5.20;;
7191;SDS011;3637;51.494;11.958;2023-05-10T10:29:32;5.33;;;4.83;;
7191;SDS011;3637;51.494;11.958;2023-05-10T10:32:45;6.53;;;4.87;;
7191;SDS011;3637;51.494;11.958;2023-05-10T10:36:01;5.47;;;4.60;;
7191;SDS011;3637;51.494;11.958;2023-05-10T10:39:07;5.03;;;4.50;;
7191;SDS011;3637;51.494;11.958;2023-05-10T10:42:10;8.43;;;4.53;;
7191;SDS011;3637;51.494;11.958;2023-05-10T10:45:13;3.90;;;3.50;;
7191;SDS011;3637;51.494;11.958;2023-05-10T10:48:19;3.10;;;2.70;;
7191;SDS011;3637;51.494;11.958;2023-05-10T10:51:22;2.70;;;2.47;;
7191;SDS011;3637;51.494;11.958;2023-05-10T10:54:26;2.77;;;2.40;;
7191;SDS011;3637;51.494;11.958;2023-05-10T10:57:31;2.90;;;2.60;;
7191;SDS011;3637;51.494;11.958;2023-05-10T11:00:36;2.60;;;2.40;;
7191;SDS011;3637;51.494;11.958;2023-05-10T11:03:41;3.20;;;2.53;;
7191;SDS011;3637;51.494;11.958;2023-05-10T11:10:19;3.10;;;2.80;;
7191;SDS011;3637;51.494;11.958;2023-05-10T11:13:27;2.73;;;2.53;;
7191;SDS011;3637;51.494;11.958;2023-05-10T11:16:40;3.17;;;2.87;;
7191;SDS011;3637;51.494;11.958;2023-05-10T11:19:57;3.77;;;3.00;;
7191;SDS011;3637;51.494;11.958;2023-05-10T11:23:12;3.17;;;2.80;;
7191;SDS011;3637;51.494;11.958;2023-05-10T11:26:16;2.93;;;2.63;;
7191;SDS011;3637;51.494;11.958;2023-05-10T11:29:18;2.80;;;2.60;;
7191;SDS011;3637;51.494;11.958;2023-05-10T11:32:21;2.70;;;2.50;;
7191;SDS011;3637;51.494;11.958;2023-05-10T11:35:23;3.90;;;3.13;;
7191;SDS011;3637;51.494;11.958;2023-05-10T11:38:28;3.10;;;2.80;;
7191;SDS011;3637;51.494;11.958;2023-05-10T11:41:33;3.27;;;2.90;;
7191;SDS011;3637;51.494;11.958;2023-05-10T11:44:35;2.50;;;2.30;;
7191;SDS011;3637;51.494;11.958;2023-05-10T11:47:39;2.40;;;2.20;;
7191;SDS011;3637;51.494;11.958;2023-05-10T11:50:43;2.50;;;2.10;;
7191;SDS011;3637;51.494;11.958;2023-05-10T11:53:45;3.30;;;2.20;;
7191;SDS011;3637;51.494;11.958;2023-05-10T11:56:47;2.43;;;2.10;;
7191;SDS011;3637;51.494;11.958;2023-05-10T11:59:52;2.63;;;2.37;;
7191;SDS011;3637;51.494;11.958;2023-05-10T12:02:56;2.73;;;2.53;;
7191;SDS011;3637;51.494;11.958;2023-05-10T12:05:58;2.23;;;2.03;;
7191;SDS011;3637;51.494;11.958;2023-05-10T12:09:01;2.50;;;2.30;;
7191;SDS011;3637;51.494;11.958;2023-05-10T12:12:06;2.40;;;2.17;;
7191;SDS011;3637;51.494;11.958;2023-05-10T12:15:12;2.27;;;2.07;;
7191;SDS011;3637;51.494;11.958;2023-05-10T12:18:22;3.47;;;2.00;;
7191;SDS011;3637;51.494;11.958;2023-05-10T12:21:25;2.40;;;2.20;;
7191;SDS011;3637;51.494;11.958;2023-05-10T12:24:28;2.67;;;2.20;;
7191;SDS011;3637;51.494;11.958;2023-05-10T12:27:31;2.30;;;2.10;;
7191;SDS011;3637;51.494;11.958;2023-05-10T12:30:33;2.40;;;2.20;;
7191;SDS011;3637;51.494;11.958;2023-05-10T12:33:39;2.00;;;1.90;;
7191;SDS011;3637;51.494;11.958;2023-05-10T12:36:42;2.27;;;2.07;;
7191;SDS011;3637;51.494;11.958;2023-05-10T12:39:44;2.53;;;2.33;;
7191;SDS011;3637;51.494;11.958;2023-05-10T12:42:46;2.70;;;2.50;;
7191;SDS011;3637;51.494;11.958;2023-05-10T12:45:48;10.00;;;9.20;;
7191;SDS011;3637;51.494;11.958;2023-05-10T12:48:51;8.13;;;7.37;;
7191;SDS011;3637;51.494;11.958;2023-05-10T12:51:54;5.10;;;3.20;;
7191;SDS011;3637;51.494;11.958;2023-05-10T12:54:56;3.10;;;2.80;;
7191;SDS011;3637;51.494;11.958;2023-05-10T12:57:58;3.13;;;2.80;;
7191;SDS011;3637;51.494;11.958;2023-05-10T13:01:00;3.00;;;2.70;;
7191;SDS011;3637;51.494;11.958;2023-05-10T13:04:03;3.10;;;2.80;;
7191;SDS011;3637;51.494;11.958;2023-05-10T13:07:05;3.20;;;2.90;;
7191;SDS011;3637;51.494;11.958;2023-05-10T13:10:07;3.10;;;2.80;;
7191;SDS011;3637;51.494;11.958;2023-05-10T13:13:09;4.07;;;3.27;;
7191;SDS011;3637;51.494;11.958;2023-05-10T13:16:10;3.30;;;3.00;;
7191;SDS011;3637;51.494;11.958;2023-05-10T13:19:14;4.80;;;4.30;;
7191;SDS011;3637;51.494;11.958;2023-05-10T13:22:16;5.97;;;4.97;;
7191;SDS011;3637;51.494;11.958;2023-05-10T13:25:18;5.70;;;5.03;;
7191;SDS011;3637;51.494;11.958;2023-05-10T13:28:20;4.10;;;3.70;;
7191;SDS011;3637;51.494;11.958;2023-05-10T13:31:22;4.50;;;3.97;;
7191;SDS011;3637;51.494;11.958;2023-05-10T13:34:25;5.20;;;4.27;;
7191;SDS011;3637;51.494;11.958;2023-05-10T13:37:27;5.47;;;4.33;;
7191;SDS011;3637;51.494;11.958;2023-05-10T13:40:29;8.53;;;6.03;;
7191;SDS011;3637;51.494;11.958;2023-05-10T13:43:31;4.47;;;3.67;;
7191;SDS011;3637;51.494;11.958;2023-05-10T13:46:32;3.80;;;3.40;;
7191;SDS011;3637;51.494;11.958;2023-05-10T13:49:36;4.47;;;4.03;;
7191;SDS011;3637;51.494;11.958;2023-05-10T13:52:37;5.20;;;4.17;;
7191;SDS011;3637;51.494;11.958;2023-05-10T13:55:40;6.27;;;3.83;;
7191;SDS011;3637;51.494;11.958;2023-05-10T13:58:42;4.13;;;3.43;;
7191;SDS011;3637;51.494;11.958;2023-05-10T14:01:44;4.27;;;3.80;;
7191;SDS011;3637;51.494;11.958;2023-05-10T14:04:47;4.17;;;3.77;;
7191;SDS011;3637;51.494;11.958;2023-05-10T14:07:49;4.03;;;3.57;;
7191;SDS011;3637;51.494;11.958;2023-05-10T14:10:51;5.23;;;3.67;;
7191;SDS011;3637;51.494;11.958;2023-05-10T14:13:53;3.63;;;3.33;;
7191;SDS011;3637;51.494;11.958;2023-05-10T14:16:55;3.47;;;3.10;;
7191;SDS011;3637;51.494;11.958;2023-05-10T14:19:58;3.20;;;2.90;;
7191;SDS011;3637;51.494;11.958;2023-05-10T14:23:00;5.30;;;3.27;;
7191;SDS011;3637;51.494;11.958;2023-05-10T14:26:02;4.07;;;3.23;;
7191;SDS011;3637;51.494;11.958;2023-05-10T14:29:04;4.13;;;3.73;;
7191;SDS011;3637;51.494;11.958;2023-05-10T14:32:06;4.07;;;3.57;;
7191;SDS011;3637;51.494;11.958;2023-05-10T14:35:09;3.77;;;3.47;;
7191;SDS011;3637;51.494;11.958;2023-05-10T14:38:10;4.90;;;3.70;;
7191;SDS011;3637;51.494;11.958;2023-05-10T14:41:12;3.93;;;3.20;;
7191;SDS011;3637;51.494;11.958;2023-05-10T14:44:15;4.20;;;3.77;;
7191;SDS011;3637;51.494;11.958;2023-05-10T14:47:16;4.80;;;3.67;;
7191;SDS011;3637;51.494;11.958;2023-05-10T14:50:20;5.90;;;4.53;;
7191;SDS011;3637;51.494;11.958;2023-05-10T14:53:21;4.30;;;3.90;;
7191;SDS011;3637;51.494;11.958;2023-05-10T14:56:23;4.83;;;3.73;;
7191;SDS011;3637;51.494;11.958;2023-05-10T14:59:25;3.43;;;3.10;;
7191;SDS011;3637;51.494;11.958;2023-05-10T15:02:27;3.40;;;3.03;;
7191;SDS011;3637;51.494;11.958;2023-05-10T15:05:30;2.97;;;2.67;;
7191;SDS011;3637;51.494;11.958;2023-05-10T15:08:32;3.87;;;2.80;;
7191;SDS011;3637;51.494;11.958;2023-05-10T15:11:34;3.00;;;2.70;;
7191;SDS011;3637;51.494;11.958;2023-05-10T15:14:36;3.77;;;2.97;;
7191;SDS011;3637;51.494;11.958;2023-05-10T15:17:38;3.30;;;3.00;;
7191;SDS011;3637;51.494;11.958;2023-05-10T15:20:41;6.10;;;3.00;;
7191;SDS011;3637;51.494;11.958;2023-05-10T15:23:43;2.90;;;2.60;;
7191;SDS011;3637;51.494;11.958;2023-05-10T15:26:46;4.00;;;3.17;;
7191;SDS011;3637;51.494;11.958;2023-05-10T15:29:48;3.80;;;3.13;;
7191;SDS011;3637;51.494;11.958;2023-05-10T15:32:50;3.00;;;2.70;;
7191;SDS011;3637;51.494;11.958;2023-05-10T15:35:53;5.20;;;3.27;;
7191;SDS011;3637;51.494;11.958;2023-05-10T15:38:55;4.10;;;2.70;;
7191;SDS011;3637;51.494;11.958;2023-05-10T15:42:00;3.40;;;3.10;;
7191;SDS011;3637;51.494;11.958;2023-05-10T15:45:03;4.30;;;3.30;;
7191;SDS011;3637;51.494;11.958;2023-05-10T15:48:06;4.33;;;3.17;;
7191;SDS011;3637;51.494;11.958;2023-05-10T15:51:09;5.27;;;4.43;;
7191;SDS011;3637;51.494;11.958;2023-05-10T15:54:11;2.90;;;2.70;;
7191;SDS011;3637;51.494;11.958;2023-05-10T15:57:13;4.17;;;3.00;;
7191;SDS011;3637;51.494;11.958;2023-05-10T16:00:15;3.60;;;3.17;;
7191;SDS011;3637;51.494;11.958;2023-05-10T16:03:18;3.13;;;2.50;;
7191;SDS011;3637;51.494;11.958;2023-05-10T16:06:21;3.47;;;3.17;;
7191;SDS011;3637;51.494;11.958;2023-05-10T16:09:37;3.30;;;3.00;;
7191;SDS011;3637;51.494;11.958;2023-05-10T16:13:15;3.17;;;2.90;;
7191;SDS011;3637;51.494;11.958;2023-05-10T16:16:19;3.30;;;2.90;;
7191;SDS011;3637;51.494;11.958;2023-05-10T16:19:21;3.20;;;2.90;;
7191;SDS011;3637;51.494;11.958;2023-05-10T16:22:24;3.30;;;2.80;;
7191;SDS011;3637;51.494;11.958;2023-05-10T16:25:27;3.47;;;3.17;;
7191;SDS011;3637;51.494;11.958;2023-05-10T16:28:29;3.90;;;3.30;;
7191;SDS011;3637;51.494;11.958;2023-05-10T16:31:31;3.57;;;2.97;;
7191;SDS011;3637;51.494;11.958;2023-05-10T16:34:33;3.37;;;3.00;;
7191;SDS011;3637;51.494;11.958;2023-05-10T16:37:37;2.93;;;2.63;;
7191;SDS011;3637;51.494;11.958;2023-05-10T16:40:39;3.27;;;2.60;;
7191;SDS011;3637;51.494;11.958;2023-05-10T16:43:40;3.60;;;2.40;;
7191;SDS011;3637;51.494;11.958;2023-05-10T16:46:42;2.60;;;2.30;;
7191;SDS011;3637;51.494;11.958;2023-05-10T16:49:44;3.07;;;2.77;;
7191;SDS011;3637;51.494;11.958;2023-05-10T16:52:47;2.60;;;2.40;;
7191;SDS011;3637;51.494;11.958;2023-05-10T16:55:49;2.20;;;2.00;;
7191;SDS011;3637;51.494;11.958;2023-05-10T16:58:51;2.40;;;2.20;;
7191;SDS011;3637;51.494;11.958;2023-05-10T17:01:53;2.60;;;2.40;;
7191;SDS011;3637;51.494;11.958;2023-05-10T17:04:55;2.53;;;2.30;;
7191;SDS011;3637;51.494;11.958;2023-05-10T17:08:01;2.50;;;2.30;;
7191;SDS011;3637;51.494;11.958;2023-05-10T17:14:49;2.40;;;2.20;;
7191;SDS011;3637;51.494;11.958;2023-05-10T17:17:51;2.40;;;2.20;;
7191;SDS011;3637;51.494;11.958;2023-05-10T17:20:53;3.17;;;2.30;;
7191;SDS011;3637;51.494;11.958;2023-05-10T17:23:56;2.80;;;2.43;;
7191;SDS011;3637;51.494;11.958;2023-05-10T17:26:58;2.60;;;2.40;;
7191;SDS011;3637;51.494;11.958;2023-05-10T17:30:02;2.63;;;2.43;;
7191;SDS011;3637;51.494;11.958;2023-05-10T17:33:05;3.03;;;2.67;;
7191;SDS011;3637;51.494;11.958;2023-05-10T17:36:06;3.57;;;2.30;;
7191;SDS011;3637;51.494;11.958;2023-05-10T17:39:10;2.60;;;2.40;;
7191;SDS011;3637;51.494;11.958;2023-05-10T17:42:12;3.47;;;3.17;;
7191;SDS011;3637;51.494;11.958;2023-05-10T17:45:16;2.63;;;2.23;;
7191;SDS011;3637;51.494;11.958;2023-05-10T17:48:18;2.60;;;2.40;;
7191;SDS011;3637;51.494;11.958;2023-05-10T17:51:20;2.33;;;2.13;;
7191;SDS011;3637;51.494;11.958;2023-05-10T17:54:23;2.37;;;2.10;;
7191;SDS011;3637;51.494;11.958;2023-05-10T17:57:25;2.87;;;2.30;;
7191;SDS011;3637;51.494;11.958;2023-05-10T18:00:27;2.80;;;2.23;;
7191;SDS011;3637;51.494;11.958;2023-05-10T18:03:28;2.47;;;2.10;;
7191;SDS011;3637;51.494;11.958;2023-05-10T18:06:34;2.13;;;1.93;;
7191;SDS011;3637;51.494;11.958;2023-05-10T18:09:37;2.33;;;2.13;;
7191;SDS011;3637;51.494;11.958;2023-05-10T18:12:39;3.90;;;2.07;;
7191;SDS011;3637;51.494;11.958;2023-05-10T18:15:41;2.40;;;2.10;;
7191;SDS011;3637;51.494;11.958;2023-05-10T18:18:43;2.30;;;2.10;;
7191;SDS011;3637;51.494;11.958;2023-05-10T18:21:44;2.30;;;2.10;;
7191;SDS011;3637;51.494;11.958;2023-05-10T18:24:48;2.20;;;2.00;;
7191;SDS011;3637;51.494;11.958;2023-05-10T18:27:49;2.80;;;2.10;;
7191;SDS011;3637;51.494;11.958;2023-05-10T18:30:51;2.13;;;1.93;;
7191;SDS011;3637;51.494;11.958;2023-05-10T18:33:53;2.60;;;2.40;;
7191;SDS011;3637;51.494;11.958;2023-05-10T18:36:55;2.40;;;2.20;;
7191;SDS011;3637;51.494;11.958;2023-05-10T18:39:58;7.40;;;2.50;;
7191;SDS011;3637;51.494;11.958;2023-05-10T18:43:00;2.57;;;2.23;;
7191;SDS011;3637;51.494;11.958;2023-05-10T18:46:02;2.60;;;2.40;;
7191;SDS011;3637;51.494;11.958;2023-05-10T18:49:04;3.83;;;2.17;;
7191;SDS011;3637;51.494;11.958;2023-05-10T18:52:07;2.93;;;2.63;;